Terminal Aerodrome Forecast
Issued by NWS Sioux Falls, SD

Home | Current Version | Previous Version | Text Only | Print | Product List | Glossary On
Versions: 1 2 3 4 5 6 7 8 9 10 11 12 13 14 15 16 17 18 19 20 21 22 23 24
000
FTUS43 KFSD 150533
TAFSUX
TAF
KSUX 150533Z 1506/1606 14010KT P6SM SCT200
     FM151600 15014G20KT P6SM BKN070
     FM152300 15013KT P6SM OVC040=

USA.gov is the U.S. government's official web portal to all federal, state and local government web resources and services.